createdAt,value
2019-02-15T00:01:22.155Z,103902.00
2019-02-15T00:02:57.321Z,103903.00
2019-02-15T00:04:32.481Z,103901.00
2019-02-15T00:06:08.777Z,103902.00
2019-02-15T00:07:43.958Z,103896.00
2019-02-15T00:09:19.126Z,103894.00
2019-02-15T00:10:54.281Z,103897.00
2019-02-15T00:12:29.794Z,103900.00
2019-02-15T00:14:04.947Z,103897.00
2019-02-15T00:15:40.103Z,103898.00
2019-02-15T00:17:16.919Z,103892.00
2019-02-15T00:18:54.000Z,103892.00
2019-02-15T00:20:30.804Z,103892.00
2019-02-15T00:22:05.972Z,103891.00
2019-02-15T00:23:42.104Z,103886.00
2019-02-15T00:25:17.261Z,103868.00
2019-02-15T00:26:52.429Z,103884.00
2019-02-15T00:28:27.583Z,103877.00
2019-02-15T00:30:04.512Z,103885.00
2019-02-15T00:31:39.677Z,103883.00
2019-02-15T00:33:14.851Z,103884.00
2019-02-15T00:34:50.014Z,103875.00
2019-02-15T00:36:25.180Z,103884.00
2019-02-15T00:38:00.343Z,103881.00
2019-02-15T00:39:36.479Z,103877.00
2019-02-15T00:41:11.646Z,103879.00
2019-02-15T00:42:46.825Z,103876.00
2019-02-15T00:44:21.818Z,103884.00
2019-02-15T00:46:04.427Z,103886.00
2019-02-15T00:47:41.257Z,103884.00
2019-02-15T00:49:18.058Z,103886.00
2019-02-15T00:50:54.860Z,103885.00
2019-02-15T00:52:31.674Z,103888.00
2019-02-15T00:54:11.388Z,103883.00
2019-02-15T00:55:48.186Z,103884.00
2019-02-15T00:57:30.835Z,103882.00
2019-02-15T00:59:19.906Z,103887.00
2019-02-15T01:00:59.431Z,103890.00
2019-02-15T01:02:48.792Z,103894.00
2019-02-15T01:04:31.365Z,103890.00
2019-02-15T01:06:13.753Z,103885.00
2019-02-15T01:07:50.840Z,103889.00
2019-02-15T01:09:27.644Z,103885.00
2019-02-15T01:11:19.612Z,103885.00
2019-02-15T01:12:59.365Z,103890.00
2019-02-15T01:14:34.522Z,103884.00
2019-02-15T01:16:09.688Z,103884.00
2019-02-15T01:17:44.859Z,103887.00
2019-02-15T01:19:20.014Z,103886.00
2019-02-15T01:20:55.533Z,103877.00
2019-02-15T01:22:30.710Z,103882.00
2019-02-15T01:24:05.873Z,103880.00
2019-02-15T01:25:42.667Z,103877.00
2019-02-15T01:27:19.538Z,103877.00
2019-02-15T01:28:59.004Z,103878.00
2019-02-15T01:30:41.830Z,103877.00
2019-02-15T01:32:33.624Z,103878.00
2019-02-15T01:34:11.494Z,103873.00
2019-02-15T01:35:56.990Z,103872.00
2019-02-15T01:37:33.810Z,103870.00
2019-02-15T01:39:13.868Z,103870.00
2019-02-15T01:40:50.679Z,103871.00
2019-02-15T01:42:27.487Z,103879.00
2019-02-15T01:44:16.007Z,103866.00
2019-02-15T01:45:52.820Z,103871.00
2019-02-15T01:47:28.064Z,103877.00
2019-02-15T01:49:03.228Z,103876.00
2019-02-15T01:50:39.497Z,103885.00
2019-02-15T01:52:14.657Z,103876.00
2019-02-15T01:53:49.831Z,103875.00
2019-02-15T01:55:24.983Z,103876.00
2019-02-15T01:57:01.128Z,103873.00
2019-02-15T01:58:36.305Z,103881.00
2019-02-15T02:00:13.749Z,103875.00
2019-02-15T02:01:48.917Z,103871.00
2019-02-15T02:03:24.078Z,103871.00
2019-02-15T02:04:59.233Z,103873.00
2019-02-15T02:06:34.398Z,103872.00
2019-02-15T02:08:11.506Z,103874.00
2019-02-15T02:09:46.672Z,103866.00
2019-02-15T02:11:21.840Z,103871.00
2019-02-15T02:12:57.009Z,103874.00
2019-02-15T02:14:33.239Z,103878.00
2019-02-15T02:16:08.694Z,103875.00
2019-02-15T02:17:43.868Z,103866.00
2019-02-15T02:19:19.033Z,103868.00
2019-02-15T02:20:54.485Z,103868.00
2019-02-15T02:22:29.642Z,103865.00
2019-02-15T02:24:04.817Z,103867.00
2019-02-15T02:25:40.056Z,103850.00
2019-02-15T02:27:15.236Z,103860.00
2019-02-15T02:28:50.757Z,103854.00
2019-02-15T02:30:25.927Z,103855.00
2019-02-15T02:32:01.109Z,103860.00
2019-02-15T02:33:37.353Z,103852.00
2019-02-15T02:35:13.621Z,103857.00
2019-02-15T02:36:53.591Z,103859.00
2019-02-15T02:38:29.110Z,103859.00
2019-02-15T02:40:06.204Z,103849.00
2019-02-15T02:41:41.372Z,103846.00
2019-02-15T02:43:16.541Z,103847.00
2019-02-15T02:44:52.017Z,103845.00
2019-02-15T02:46:27.119Z,103852.00
2019-02-15T02:48:02.295Z,103850.00
2019-02-15T02:49:37.446Z,103856.00
2019-02-15T02:51:12.606Z,103852.00
2019-02-15T02:52:47.761Z,103848.00
2019-02-15T02:54:22.941Z,103843.00
2019-02-15T02:55:58.099Z,103846.00
2019-02-15T02:57:33.248Z,103849.00
2019-02-15T02:59:08.413Z,103839.00
2019-02-15T03:00:43.589Z,103833.00
2019-02-15T03:02:18.806Z,103842.00
2019-02-15T03:03:53.934Z,103836.00
2019-02-15T03:05:29.117Z,103839.00
2019-02-15T03:07:04.719Z,103841.00
2019-02-15T03:08:40.478Z,103829.00
2019-02-15T03:10:17.007Z,103834.00
2019-02-15T03:11:52.168Z,103837.00
2019-02-15T03:13:27.345Z,103841.00
2019-02-15T03:15:02.582Z,103840.00
2019-02-15T03:16:37.817Z,103833.00
2019-02-15T03:18:12.992Z,103826.00
2019-02-15T03:19:48.186Z,103827.00
2019-02-15T03:21:23.328Z,103830.00
2019-02-15T03:22:58.485Z,103834.00
2019-02-15T03:24:33.658Z,103841.00
2019-02-15T03:26:08.809Z,103834.00
2019-02-15T03:27:44.282Z,103823.00
2019-02-15T03:29:19.444Z,103831.00
2019-02-15T03:30:54.620Z,103827.00
2019-02-15T03:32:29.778Z,103831.00
2019-02-15T03:34:05.017Z,103829.00
2019-02-15T03:35:42.570Z,103839.00
2019-02-15T03:37:19.371Z,103834.00
2019-02-15T03:38:56.181Z,103840.00
2019-02-15T03:40:33.958Z,103837.00
2019-02-15T03:42:10.998Z,103835.00
2019-02-15T03:43:46.163Z,103833.00
2019-02-15T03:45:21.340Z,103828.00
2019-02-15T03:46:56.505Z,103836.00
2019-02-15T03:48:31.687Z,103840.00
2019-02-15T03:50:08.886Z,103829.00
2019-02-15T03:51:44.039Z,103840.00
2019-02-15T03:53:19.190Z,103835.00
2019-02-15T03:54:54.359Z,103839.00
2019-02-15T03:56:29.512Z,103836.00
2019-02-15T03:58:04.675Z,103843.00
2019-02-15T03:59:40.976Z,103836.00
2019-02-15T04:01:16.151Z,103839.00
2019-02-15T04:02:51.571Z,103835.00
2019-02-15T04:04:26.733Z,103838.00
2019-02-15T04:06:01.902Z,103836.00
2019-02-15T04:07:37.066Z,103842.00
2019-02-15T04:09:12.242Z,103839.00
2019-02-15T04:10:47.410Z,103835.00
2019-02-15T04:12:22.599Z,103834.00
2019-02-15T04:13:57.740Z,103833.00
2019-02-15T04:15:32.905Z,103836.00
2019-02-15T04:17:09.041Z,103833.00
2019-02-15T04:18:44.214Z,103830.00
2019-02-15T04:20:20.436Z,103828.00
2019-02-15T04:21:55.595Z,103832.00
2019-02-15T04:23:31.021Z,103829.00
2019-02-15T04:25:07.681Z,103829.00
2019-02-15T04:26:42.830Z,103827.00
2019-02-15T04:28:18.065Z,103830.00
2019-02-15T04:29:53.228Z,103824.00
2019-02-15T04:31:28.385Z,103819.00
2019-02-15T04:33:03.549Z,103827.00
2019-02-15T04:34:38.726Z,103831.00
2019-02-15T04:36:13.892Z,103825.00
2019-02-15T04:37:49.043Z,103832.00
2019-02-15T04:39:24.206Z,103825.00
2019-02-15T04:40:59.358Z,103828.00
2019-02-15T04:42:34.516Z,103824.00
2019-02-15T04:44:09.721Z,103821.00
2019-02-15T04:45:44.879Z,103832.00
2019-02-15T04:47:20.158Z,103830.00
2019-02-15T04:48:55.332Z,103832.00
2019-02-15T04:50:30.484Z,103827.00
2019-02-15T04:52:05.926Z,103828.00
2019-02-15T04:53:41.754Z,103819.00
2019-02-15T04:55:16.908Z,103831.00
2019-02-15T04:56:52.061Z,103828.00
2019-02-15T04:58:27.220Z,103822.00
2019-02-15T05:00:02.377Z,103825.00
2019-02-15T05:01:37.605Z,103827.00
2019-02-15T05:03:12.765Z,103815.00
2019-02-15T05:04:47.959Z,103824.00
2019-02-15T05:06:23.342Z,103823.00
2019-02-15T05:07:58.513Z,103818.00
2019-02-15T05:09:33.683Z,103818.00
2019-02-15T05:11:08.856Z,103822.00
2019-02-15T05:12:44.269Z,103826.00
2019-02-15T05:14:19.447Z,103824.00
2019-02-15T05:15:54.598Z,103829.00
2019-02-15T05:17:29.767Z,103831.00
2019-02-15T05:19:04.908Z,103826.00
2019-02-15T05:20:40.089Z,103824.00
2019-02-15T05:22:15.302Z,103828.00
2019-02-15T05:23:50.807Z,103832.00
2019-02-15T05:25:25.966Z,103833.00
2019-02-15T05:27:01.384Z,103831.00
2019-02-15T05:28:36.578Z,103828.00
2019-02-15T05:30:12.138Z,103820.00
2019-02-15T05:31:47.308Z,103823.00
2019-02-15T05:33:22.484Z,103826.00
2019-02-15T05:34:57.649Z,103820.00
2019-02-15T05:36:32.799Z,103825.00
2019-02-15T05:38:07.964Z,103826.00
2019-02-15T05:39:43.131Z,103827.00
2019-02-15T05:41:18.284Z,103824.00
2019-02-15T05:42:53.458Z,103811.00
2019-02-15T05:44:28.647Z,103818.00
2019-02-15T05:46:04.122Z,103822.00
2019-02-15T05:47:39.292Z,103822.00
2019-02-15T05:49:14.786Z,103821.00
2019-02-15T05:50:49.963Z,103832.00
2019-02-15T05:52:25.131Z,103829.00
2019-02-15T05:54:00.313Z,103838.00
2019-02-15T05:55:35.742Z,103833.00
2019-02-15T05:57:10.917Z,103836.00
2019-02-15T05:58:46.079Z,103843.00
2019-02-15T06:00:21.261Z,103832.00
2019-02-15T06:01:57.388Z,103845.00
2019-02-15T06:03:32.907Z,103834.00
2019-02-15T06:05:09.462Z,103840.00
2019-02-15T06:06:44.576Z,103842.00
2019-02-15T06:08:19.740Z,103839.00
2019-02-15T06:09:54.903Z,103839.00
2019-02-15T06:11:30.069Z,103837.00
2019-02-15T06:13:05.249Z,103837.00
2019-02-15T06:14:40.406Z,103836.00
2019-02-15T06:16:15.887Z,103837.00
2019-02-15T06:17:51.055Z,103834.00
2019-02-15T06:19:26.214Z,103837.00
2019-02-15T06:21:01.384Z,103837.00
2019-02-15T06:22:36.827Z,103840.00
2019-02-15T06:24:12.793Z,103837.00
2019-02-15T06:25:48.314Z,103842.00
2019-02-15T06:27:23.454Z,103838.00
2019-02-15T06:28:58.614Z,103848.00
2019-02-15T06:30:34.096Z,103849.00
2019-02-15T06:32:09.278Z,103846.00
2019-02-15T06:33:44.462Z,103848.00
2019-02-15T06:35:19.640Z,103836.00
2019-02-15T06:36:54.796Z,103850.00
2019-02-15T06:38:34.775Z,103838.00
2019-02-15T06:40:07.519Z,103847.00
2019-02-15T06:41:43.650Z,103843.00
2019-02-15T06:43:19.627Z,103849.00
2019-02-15T06:44:54.814Z,103858.00
2019-02-15T06:46:30.314Z,103851.00
2019-02-15T06:48:05.477Z,103861.00
2019-02-15T06:49:40.639Z,103855.00
2019-02-15T06:51:15.831Z,103848.00
2019-02-15T06:52:50.993Z,103848.00
2019-02-15T06:54:26.149Z,103847.00
2019-02-15T06:56:01.312Z,103847.00
2019-02-15T06:57:36.470Z,103857.00
2019-02-15T06:59:13.284Z,103854.00
2019-02-15T07:01:02.180Z,103859.00
2019-02-15T07:02:38.985Z,103852.00
2019-02-15T07:04:25.395Z,103851.00
2019-02-15T07:06:00.568Z,103855.00
2019-02-15T07:07:35.712Z,103865.00
2019-02-15T07:09:10.872Z,103869.00
2019-02-15T07:10:46.039Z,103873.00
2019-02-15T07:12:21.192Z,103874.00
2019-02-15T07:13:56.392Z,103883.00
2019-02-15T07:15:33.800Z,103876.00
2019-02-15T07:17:08.348Z,103888.00
2019-02-15T07:18:43.522Z,103888.00
2019-02-15T07:20:18.684Z,103903.00
2019-02-15T07:21:53.837Z,103889.00
2019-02-15T07:23:28.999Z,103897.00
2019-02-15T07:25:05.396Z,103897.00
2019-02-15T07:26:40.583Z,103898.00
2019-02-15T07:28:15.971Z,103904.00
2019-02-15T07:29:51.124Z,103901.00
2019-02-15T07:31:26.286Z,103894.00
2019-02-15T07:33:01.440Z,103903.00
2019-02-15T07:34:36.631Z,103904.00
2019-02-15T07:36:11.765Z,103910.00
2019-02-15T07:37:47.391Z,103898.00
2019-02-15T07:39:22.563Z,103909.00
2019-02-15T07:40:57.738Z,103908.00
2019-02-15T07:42:32.899Z,103907.00
2019-02-15T07:44:08.059Z,103912.00
2019-02-15T07:45:43.275Z,103908.00
2019-02-15T07:47:18.382Z,103908.00
2019-02-15T07:48:53.549Z,103914.00
2019-02-15T07:50:28.727Z,103910.00
2019-02-15T07:52:03.887Z,103912.00
2019-02-15T07:53:39.057Z,103925.00
2019-02-15T07:55:15.352Z,103922.00
2019-02-15T07:56:50.538Z,103906.00
2019-02-15T07:58:25.715Z,103928.00
2019-02-15T08:00:01.051Z,103926.00
2019-02-15T08:01:37.131Z,103915.00
2019-02-15T08:03:12.308Z,103923.00
2019-02-15T08:04:47.485Z,103921.00
2019-02-15T08:06:22.680Z,103924.00
2019-02-15T08:07:58.185Z,103922.00
2019-02-15T08:09:33.362Z,103922.00
2019-02-15T08:11:08.546Z,103928.00
2019-02-15T08:12:43.727Z,103922.00
2019-02-15T08:14:18.927Z,103922.00
2019-02-15T08:15:54.094Z,103914.00
2019-02-15T08:17:29.275Z,103934.00
2019-02-15T08:19:04.458Z,103909.00
2019-02-15T08:20:39.638Z,103927.00
2019-02-15T08:22:14.812Z,103928.00
2019-02-15T08:23:49.992Z,103929.00
2019-02-15T08:25:25.171Z,103926.00
2019-02-15T08:27:00.356Z,103935.00
2019-02-15T08:28:35.532Z,103927.00
2019-02-15T08:30:11.841Z,103938.00
2019-02-15T08:31:47.026Z,103930.00
2019-02-15T08:33:22.200Z,103940.00
2019-02-15T08:34:57.365Z,103931.00
2019-02-15T08:36:33.515Z,103946.00
2019-02-15T08:38:08.687Z,103948.00
2019-02-15T08:39:43.689Z,103956.00
2019-02-15T08:41:19.667Z,103936.00
2019-02-15T08:42:55.998Z,103945.00
2019-02-15T08:44:31.290Z,103944.00
2019-02-15T08:46:06.471Z,103947.00
2019-02-15T08:47:41.823Z,103945.00
2019-02-15T08:49:17.179Z,103940.00
2019-02-15T08:50:52.205Z,103948.00
2019-02-15T08:52:27.386Z,103946.00
2019-02-15T08:54:02.561Z,103952.00
2019-02-15T08:55:37.737Z,103944.00
2019-02-15T08:57:12.916Z,103941.00
2019-02-15T08:58:48.388Z,103940.00
2019-02-15T09:00:23.564Z,103945.00
2019-02-15T09:02:00.399Z,103945.00
2019-02-15T09:03:35.567Z,103942.00
2019-02-15T09:05:13.582Z,103943.00
2019-02-15T09:06:48.772Z,103946.00
2019-02-15T09:08:23.952Z,103943.00
2019-02-15T09:09:59.129Z,103942.00
2019-02-15T09:11:34.311Z,103945.00
2019-02-15T09:13:09.477Z,103937.00
2019-02-15T09:14:44.651Z,103935.00
2019-02-15T09:16:20.408Z,103940.00
2019-02-15T09:17:55.579Z,103947.00
2019-02-15T09:19:30.757Z,103942.00
2019-02-15T09:21:05.944Z,103940.00
2019-02-15T09:22:41.116Z,103943.00
2019-02-15T09:24:16.291Z,103948.00
2019-02-15T09:25:51.456Z,103948.00
2019-02-15T09:27:28.281Z,103937.00
2019-02-15T09:29:04.926Z,103937.00
2019-02-15T09:30:40.094Z,103942.00
2019-02-15T09:32:15.275Z,103952.00
2019-02-15T09:33:50.585Z,103947.00
2019-02-15T09:35:26.803Z,103941.00
2019-02-15T09:37:01.983Z,103955.00
2019-02-15T09:38:37.167Z,103949.00
2019-02-15T09:40:12.336Z,103946.00
2019-02-15T09:41:47.540Z,103949.00
2019-02-15T09:43:22.724Z,103950.00
2019-02-15T09:44:57.893Z,103942.00
2019-02-15T09:46:33.067Z,103945.00
2019-02-15T09:48:08.242Z,103947.00
2019-02-15T09:49:45.198Z,103944.00
2019-02-15T09:51:20.730Z,103952.00
2019-02-15T09:52:55.910Z,103956.00
2019-02-15T09:54:31.096Z,103949.00
2019-02-15T09:56:06.276Z,103953.00
2019-02-15T09:57:41.454Z,103942.00
2019-02-15T09:59:16.635Z,103943.00
2019-02-15T10:00:51.816Z,103944.00
2019-02-15T10:02:27.224Z,103945.00
2019-02-15T10:04:02.662Z,103946.00
2019-02-15T10:05:37.823Z,103943.00
2019-02-15T10:07:13.020Z,103943.00
2019-02-15T10:08:48.194Z,103944.00
2019-02-15T10:10:23.370Z,103948.00
2019-02-15T10:11:58.550Z,103942.00
2019-02-15T10:13:33.723Z,103946.00
2019-02-15T10:15:11.132Z,103951.00
2019-02-15T10:16:48.057Z,103953.00
2019-02-15T10:18:23.186Z,103941.00
2019-02-15T10:19:58.642Z,103952.00
2019-02-15T10:21:33.828Z,103949.00
2019-02-15T10:23:08.998Z,103954.00
2019-02-15T10:24:44.162Z,103947.00
2019-02-15T10:26:19.341Z,103950.00
2019-02-15T10:27:54.523Z,103956.00
2019-02-15T10:29:29.712Z,103947.00
2019-02-15T10:31:04.900Z,103945.00
2019-02-15T10:32:40.085Z,103950.00
2019-02-15T10:34:15.523Z,103946.00
2019-02-15T10:35:51.268Z,103947.00
2019-02-15T10:37:26.449Z,103956.00
2019-02-15T10:39:01.634Z,103938.00
2019-02-15T10:40:38.482Z,103943.00
2019-02-15T10:42:13.659Z,103947.00
2019-02-15T10:43:49.167Z,103945.00
2019-02-15T10:45:24.340Z,103943.00
2019-02-15T10:46:59.531Z,103952.00
2019-02-15T10:48:34.691Z,103938.00
2019-02-15T10:50:11.485Z,103931.00
2019-02-15T10:51:46.681Z,103937.00
2019-02-15T10:53:21.866Z,103933.00
2019-02-15T10:54:57.041Z,103936.00
2019-02-15T10:56:32.212Z,103941.00
2019-02-15T10:58:07.400Z,103932.00
2019-02-15T10:59:42.570Z,103938.00
2019-02-15T11:01:17.741Z,103931.00
2019-02-15T11:02:53.185Z,103929.00
2019-02-15T11:04:28.359Z,103928.00
2019-02-15T11:06:03.542Z,103936.00
2019-02-15T11:07:38.730Z,103935.00
2019-02-15T11:09:14.866Z,103938.00
2019-02-15T11:10:50.374Z,103933.00
2019-02-15T11:12:25.560Z,103929.00
2019-02-15T11:14:00.740Z,103935.00
2019-02-15T11:15:35.915Z,103928.00
2019-02-15T11:17:11.098Z,103929.00
2019-02-15T11:18:46.276Z,103926.00
2019-02-15T11:20:21.765Z,103930.00
2019-02-15T11:21:56.963Z,103927.00
2019-02-15T11:23:32.133Z,103928.00
2019-02-15T11:25:10.318Z,103931.00
2019-02-15T11:26:45.495Z,103926.00
2019-02-15T11:28:21.796Z,103929.00
2019-02-15T11:29:56.969Z,103924.00
2019-02-15T11:31:32.145Z,103931.00
2019-02-15T11:33:07.319Z,103926.00
2019-02-15T11:34:42.502Z,103927.00
2019-02-15T11:36:17.684Z,103925.00
2019-02-15T11:37:52.875Z,103925.00
2019-02-15T11:39:28.050Z,103913.00
2019-02-15T11:41:10.909Z,103921.00
2019-02-15T11:42:40.278Z,103913.00
2019-02-15T11:44:15.456Z,103915.00
2019-02-15T11:45:50.628Z,103909.00
2019-02-15T11:47:25.828Z,103907.00
2019-02-15T11:49:00.993Z,103905.00
2019-02-15T11:50:36.168Z,103900.00
2019-02-15T11:52:11.354Z,103903.00
2019-02-15T11:53:46.529Z,103895.00
2019-02-15T11:55:22.197Z,103894.00
2019-02-15T11:56:57.366Z,103890.00
2019-02-15T11:58:32.545Z,103887.00
2019-02-15T12:00:17.831Z,103882.00
2019-02-15T12:01:52.627Z,103889.00
2019-02-15T12:03:27.812Z,103886.00
2019-02-15T12:05:03.319Z,103884.00
2019-02-15T12:06:38.489Z,103877.00
2019-02-15T12:08:13.667Z,103877.00
2019-02-15T12:09:48.969Z,103872.00
2019-02-15T12:11:24.169Z,103868.00
2019-02-15T12:12:59.349Z,103874.00
2019-02-15T12:14:34.523Z,103866.00
2019-02-15T12:16:09.698Z,103863.00
2019-02-15T12:17:44.888Z,103863.00
2019-02-15T12:19:20.349Z,103863.00
2019-02-15T12:20:55.510Z,103863.00
2019-02-15T12:22:30.702Z,103858.00
2019-02-15T12:24:05.879Z,103855.00
2019-02-15T12:25:41.057Z,103860.00
2019-02-15T12:27:16.569Z,103859.00
2019-02-15T12:28:52.430Z,103855.00
2019-02-15T12:30:27.610Z,103846.00
2019-02-15T12:32:02.790Z,103855.00
2019-02-15T12:33:37.980Z,103854.00
2019-02-15T12:35:13.159Z,103849.00
2019-02-15T12:36:48.426Z,103839.00
2019-02-15T12:38:23.587Z,103839.00
2019-02-15T12:39:59.059Z,103841.00
2019-02-15T12:41:34.596Z,103835.00
2019-02-15T12:43:11.009Z,103837.00
2019-02-15T12:44:46.186Z,103837.00
2019-02-15T12:46:21.366Z,103827.00
2019-02-15T12:47:56.786Z,103827.00
2019-02-15T12:49:31.958Z,103827.00
2019-02-15T12:51:07.132Z,103825.00
2019-02-15T12:52:42.306Z,103827.00
2019-02-15T12:54:17.480Z,103830.00
2019-02-15T12:55:53.603Z,103820.00
2019-02-15T12:57:28.779Z,103819.00
2019-02-15T12:59:03.962Z,103817.00
2019-02-15T13:00:39.128Z,103819.00
2019-02-15T13:02:14.305Z,103814.00
2019-02-15T13:03:49.740Z,103819.00
2019-02-15T13:05:24.923Z,103810.00
2019-02-15T13:07:00.096Z,103809.00
2019-02-15T13:08:35.276Z,103813.00
2019-02-15T13:10:19.057Z,103808.00
2019-02-15T13:11:54.487Z,103806.00
2019-02-15T13:13:29.910Z,103801.00
2019-02-15T13:15:07.518Z,103803.00
2019-02-15T13:16:42.946Z,103805.00
2019-02-15T13:18:18.128Z,103801.00
2019-02-15T13:19:53.802Z,103801.00
2019-02-15T13:21:28.970Z,103797.00
2019-02-15T13:23:04.145Z,103797.00
2019-02-15T13:24:39.329Z,103792.00
2019-02-15T13:26:14.834Z,103796.00
2019-02-15T13:27:49.970Z,103786.00
2019-02-15T13:29:25.157Z,103787.00
2019-02-15T13:31:00.329Z,103792.00
2019-02-15T13:32:35.511Z,103789.00
2019-02-15T13:34:10.703Z,103786.00
2019-02-15T13:35:45.873Z,103783.00
2019-02-15T13:37:21.062Z,103780.00
2019-02-15T13:38:56.238Z,103780.00
2019-02-15T13:40:31.408Z,103778.00
2019-02-15T13:42:06.584Z,103780.00
2019-02-15T13:43:41.751Z,103776.00
2019-02-15T13:45:16.941Z,103775.00
2019-02-15T13:46:52.126Z,103771.00
2019-02-15T13:48:27.303Z,103770.00
2019-02-15T13:50:02.494Z,103769.00
2019-02-15T13:51:37.671Z,103762.00
2019-02-15T13:53:12.839Z,103770.00
2019-02-15T13:54:48.208Z,103768.00
2019-02-15T13:56:26.248Z,103762.00
2019-02-15T13:58:02.732Z,103762.00
2019-02-15T13:59:42.930Z,103755.00
2019-02-15T14:01:19.430Z,103757.00
2019-02-15T14:02:55.528Z,103763.00
2019-02-15T14:04:30.788Z,103754.00
2019-02-15T14:06:06.036Z,103759.00
2019-02-15T14:07:41.258Z,103755.00
2019-02-15T14:09:16.420Z,103754.00
2019-02-15T14:10:51.590Z,103754.00
2019-02-15T14:12:26.775Z,103750.00
2019-02-15T14:14:02.010Z,103742.00
2019-02-15T14:15:37.227Z,103744.00
2019-02-15T14:17:12.501Z,103737.00
2019-02-15T14:18:47.728Z,103743.00
2019-02-15T14:20:22.893Z,103739.00
2019-02-15T14:21:58.373Z,103731.00
2019-02-15T14:23:33.566Z,103739.00
2019-02-15T14:25:11.050Z,103729.00
2019-02-15T14:26:46.229Z,103731.00
2019-02-15T14:28:21.437Z,103721.00
2019-02-15T14:29:57.130Z,103728.00
2019-02-15T14:31:32.632Z,103724.00
2019-02-15T14:33:07.805Z,103724.00
2019-02-15T14:34:43.307Z,103721.00
2019-02-15T14:36:18.490Z,103712.00
2019-02-15T14:37:54.624Z,103713.00
2019-02-15T14:39:29.830Z,103724.00
2019-02-15T14:41:05.013Z,103725.00
2019-02-15T14:42:40.207Z,103714.00
2019-02-15T14:44:15.425Z,103720.00
2019-02-15T14:45:50.606Z,103715.00
2019-02-15T14:47:25.784Z,103711.00
2019-02-15T14:49:00.984Z,103713.00
2019-02-15T14:50:37.139Z,103707.00
2019-02-15T14:52:12.308Z,103704.00
2019-02-15T14:53:47.504Z,103702.00
2019-02-15T14:55:22.685Z,103697.00
2019-02-15T14:56:57.857Z,103704.00
2019-02-15T14:58:33.025Z,103700.00
2019-02-15T15:00:15.822Z,103688.00
2019-02-15T15:01:53.989Z,103694.00
2019-02-15T15:03:29.155Z,103685.00
2019-02-15T15:05:05.342Z,103679.00
2019-02-15T15:06:40.529Z,103680.00
2019-02-15T15:08:15.698Z,103682.00
2019-02-15T15:09:50.892Z,103671.00
2019-02-15T15:11:26.159Z,103679.00
2019-02-15T15:13:01.336Z,103679.00
2019-02-15T15:14:36.515Z,103670.00
2019-02-15T15:16:11.685Z,103674.00
2019-02-15T15:17:46.858Z,103661.00
2019-02-15T15:19:22.041Z,103668.00
2019-02-15T15:20:57.835Z,103659.00
2019-02-15T15:22:33.014Z,103659.00
2019-02-15T15:24:08.193Z,103658.00
2019-02-15T15:25:43.360Z,103658.00
2019-02-15T15:27:18.527Z,103654.00
2019-02-15T15:28:53.724Z,103654.00
2019-02-15T15:30:28.890Z,103668.00
2019-02-15T15:32:04.068Z,103653.00
2019-02-15T15:33:39.253Z,103650.00
2019-02-15T15:35:14.726Z,103653.00
2019-02-15T15:36:50.281Z,103655.00
2019-02-15T15:38:25.427Z,103650.00
2019-02-15T15:40:00.608Z,103648.00
2019-02-15T15:41:35.776Z,103643.00
2019-02-15T15:43:10.956Z,103652.00
2019-02-15T15:44:46.152Z,103651.00
2019-02-15T15:46:21.324Z,103641.00
2019-02-15T15:47:56.495Z,103641.00
2019-02-15T15:49:31.678Z,103632.00
2019-02-15T15:51:06.849Z,103635.00
2019-02-15T15:52:42.031Z,103633.00
2019-02-15T15:54:17.229Z,103637.00
2019-02-15T15:55:52.398Z,103625.00
2019-02-15T15:57:28.279Z,103630.00
2019-02-15T15:59:03.451Z,103632.00
2019-02-15T16:00:39.495Z,103630.00
2019-02-15T16:02:14.680Z,103638.00
2019-02-15T16:03:49.866Z,103632.00
2019-02-15T16:05:25.050Z,103638.00
2019-02-15T16:07:00.224Z,103630.00
2019-02-15T16:08:35.729Z,103632.00
2019-02-15T16:10:15.315Z,103630.00
2019-02-15T16:11:50.632Z,103629.00
2019-02-15T16:13:25.760Z,103626.00
2019-02-15T16:15:00.955Z,103628.00
2019-02-15T16:16:37.209Z,103623.00
2019-02-15T16:18:12.651Z,103630.00
2019-02-15T16:19:49.807Z,103631.00
2019-02-15T16:21:24.896Z,103629.00
2019-02-15T16:23:00.076Z,103625.00
2019-02-15T16:24:35.255Z,103632.00
2019-02-15T16:26:10.434Z,103632.00
2019-02-15T16:27:45.632Z,103644.00
2019-02-15T16:29:20.803Z,103634.00
2019-02-15T16:30:55.982Z,103637.00
2019-02-15T16:32:31.142Z,103633.00
2019-02-15T16:34:06.434Z,103639.00
2019-02-15T16:35:41.625Z,103637.00
2019-02-15T16:37:16.824Z,103640.00
2019-02-15T16:38:51.995Z,103643.00
2019-02-15T16:40:27.175Z,103641.00
2019-02-15T16:42:02.353Z,103637.00
2019-02-15T16:43:37.520Z,103632.00
2019-02-15T16:45:14.938Z,103642.00
2019-02-15T16:46:50.083Z,103640.00
2019-02-15T16:48:25.257Z,103639.00
2019-02-15T16:50:00.438Z,103632.00
2019-02-15T16:51:35.612Z,103632.00
2019-02-15T16:53:10.821Z,103637.00
2019-02-15T16:54:46.258Z,103629.00
2019-02-15T16:56:21.428Z,103633.00
2019-02-15T16:57:56.610Z,103629.00
2019-02-15T16:59:31.792Z,103630.00
2019-02-15T17:01:06.974Z,103631.00
2019-02-15T17:02:42.155Z,103626.00
2019-02-15T17:04:17.325Z,103627.00
2019-02-15T17:05:52.794Z,103635.00
2019-02-15T17:07:27.963Z,103637.00
2019-02-15T17:09:05.116Z,103631.00
2019-02-15T17:10:41.859Z,103637.00
2019-02-15T17:12:17.031Z,103637.00
2019-02-15T17:13:52.208Z,103631.00
2019-02-15T17:15:27.402Z,103632.00
2019-02-15T17:17:02.589Z,103625.00
2019-02-15T17:18:38.126Z,103631.00
2019-02-15T17:20:13.312Z,103624.00
2019-02-15T17:21:48.494Z,103636.00
2019-02-15T17:23:23.679Z,103626.00
2019-02-15T17:24:59.982Z,103631.00
2019-02-15T17:26:35.153Z,103637.00
2019-02-15T17:28:11.032Z,103632.00
2019-02-15T17:29:46.289Z,103637.00
2019-02-15T17:31:21.472Z,103632.00
2019-02-15T17:32:56.647Z,103637.00
2019-02-15T17:34:31.859Z,103639.00
2019-02-15T17:36:07.023Z,103638.00
2019-02-15T17:37:42.202Z,103630.00
2019-02-15T17:39:17.382Z,103622.00
2019-02-15T17:40:52.562Z,103633.00
2019-02-15T17:42:27.742Z,103625.00
2019-02-15T17:44:02.911Z,103629.00
2019-02-15T17:45:39.062Z,103628.00
2019-02-15T17:47:14.231Z,103619.00
2019-02-15T17:48:49.434Z,103623.00
2019-02-15T17:50:24.925Z,103622.00
2019-02-15T17:52:00.253Z,103617.00
2019-02-15T17:53:35.691Z,103624.00
2019-02-15T17:55:11.217Z,103617.00
2019-02-15T17:56:46.402Z,103606.00
2019-02-15T17:58:21.575Z,103611.00
2019-02-15T17:59:56.746Z,103615.00
2019-02-15T18:01:32.910Z,103611.00
2019-02-15T18:03:08.094Z,103611.00
2019-02-15T18:04:43.274Z,103617.00
2019-02-15T18:06:18.448Z,103619.00
2019-02-15T18:07:53.909Z,103623.00
2019-02-15T18:09:29.090Z,103618.00
2019-02-15T18:11:04.290Z,103625.00
2019-02-15T18:12:39.481Z,103617.00